sensor_id;sensor_type;location;lat;lon;timestamp;temperature;humidity
39277;DHT22;24981;48.086;-1.686;2022-07-26T00:01:26;19.60;99.90
39277;DHT22;24981;48.086;-1.686;2022-07-26T00:03:53;19.60;99.90
39277;DHT22;24981;48.086;-1.686;2022-07-26T00:06:21;19.60;99.90
39277;DHT22;24981;48.086;-1.686;2022-07-26T00:08:48;19.60;99.90
39277;DHT22;24981;48.086;-1.686;2022-07-26T00:11:16;19.60;99.90
39277;DHT22;24981;48.086;-1.686;2022-07-26T00:13:45;19.60;99.90
39277;DHT22;24981;48.086;-1.686;2022-07-26T00:16:13;19.50;99.90
39277;DHT22;24981;48.086;-1.686;2022-07-26T00:18:41;19.40;99.90
39277;DHT22;24981;48.086;-1.686;2022-07-26T00:21:08;19.40;99.90
39277;DHT22;24981;48.086;-1.686;2022-07-26T00:23:35;19.40;99.90
39277;DHT22;24981;48.086;-1.686;2022-07-26T00:26:03;19.40;99.90
39277;DHT22;24981;48.086;-1.686;2022-07-26T00:28:30;19.40;99.90
39277;DHT22;24981;48.086;-1.686;2022-07-26T00:30:59;19.40;99.90
39277;DHT22;24981;48.086;-1.686;2022-07-26T00:33:26;19.30;99.90
39277;DHT22;24981;48.086;-1.686;2022-07-26T00:35:53;19.30;99.90
39277;DHT22;24981;48.086;-1.686;2022-07-26T00:38:21;19.30;99.90
39277;DHT22;24981;48.086;-1.686;2022-07-26T00:40:48;19.30;99.90
39277;DHT22;24981;48.086;-1.686;2022-07-26T00:43:15;19.30;99.90
39277;DHT22;24981;48.086;-1.686;2022-07-26T00:45:43;19.20;99.90
39277;DHT22;24981;48.086;-1.686;2022-07-26T00:48:12;19.10;99.90
39277;DHT22;24981;48.086;-1.686;2022-07-26T00:50:39;19.10;99.90
39277;DHT22;24981;48.086;-1.686;2022-07-26T00:53:07;19.20;99.90
39277;DHT22;24981;48.086;-1.686;2022-07-26T00:55:34;19.10;99.90
39277;DHT22;24981;48.086;-1.686;2022-07-26T00:58:01;19.20;99.90
39277;DHT22;24981;48.086;-1.686;2022-07-26T01:00:29;19.10;99.90
39277;DHT22;24981;48.086;-1.686;2022-07-26T01:02:56;19.20;99.90
39277;DHT22;24981;48.086;-1.686;2022-07-26T01:05:27;19.30;99.90
39277;DHT22;24981;48.086;-1.686;2022-07-26T01:07:55;19.20;99.90
39277;DHT22;24981;48.086;-1.686;2022-07-26T01:10:22;19.20;99.90
39277;DHT22;24981;48.086;-1.686;2022-07-26T01:12:50;19.20;99.90
39277;DHT22;24981;48.086;-1.686;2022-07-26T01:15:18;19.20;99.90
39277;DHT22;24981;48.086;-1.686;2022-07-26T01:17:46;19.10;99.90
39277;DHT22;24981;48.086;-1.686;2022-07-26T01:20:14;19.10;99.90
39277;DHT22;24981;48.086;-1.686;2022-07-26T01:22:43;19.20;99.90
39277;DHT22;24981;48.086;-1.686;2022-07-26T01:25:10;19.10;99.90
39277;DHT22;24981;48.086;-1.686;2022-07-26T01:27:38;19.10;99.90
39277;DHT22;24981;48.086;-1.686;2022-07-26T01:30:07;19.10;99.90
39277;DHT22;24981;48.086;-1.686;2022-07-26T01:32:36;19.10;99.90
39277;DHT22;24981;48.086;-1.686;2022-07-26T01:35:04;19.10;99.90
39277;DHT22;24981;48.086;-1.686;2022-07-26T01:37:31;19.00;99.90
39277;DHT22;24981;48.086;-1.686;2022-07-26T01:40:00;19.00;99.90
39277;DHT22;24981;48.086;-1.686;2022-07-26T01:42:28;19.00;99.90
39277;DHT22;24981;48.086;-1.686;2022-07-26T01:44:55;19.10;99.90
39277;DHT22;24981;48.086;-1.686;2022-07-26T01:47:23;19.00;99.90
39277;DHT22;24981;48.086;-1.686;2022-07-26T01:49:50;18.90;99.90
39277;DHT22;24981;48.086;-1.686;2022-07-26T01:52:17;19.00;99.90
39277;DHT22;24981;48.086;-1.686;2022-07-26T01:54:45;18.90;99.90
39277;DHT22;24981;48.086;-1.686;2022-07-26T01:57:14;18.90;99.90
39277;DHT22;24981;48.086;-1.686;2022-07-26T01:59:41;18.90;99.90
39277;DHT22;24981;48.086;-1.686;2022-07-26T02:02:08;18.90;99.90
39277;DHT22;24981;48.086;-1.686;2022-07-26T02:04:36;18.80;99.90
39277;DHT22;24981;48.086;-1.686;2022-07-26T02:07:17;18.80;99.90
39277;DHT22;24981;48.086;-1.686;2022-07-26T02:09:44;18.90;99.90
39277;DHT22;24981;48.086;-1.686;2022-07-26T02:12:11;18.90;99.90
39277;DHT22;24981;48.086;-1.686;2022-07-26T02:14:40;18.90;99.90
39277;DHT22;24981;48.086;-1.686;2022-07-26T02:17:08;18.80;99.90
39277;DHT22;24981;48.086;-1.686;2022-07-26T02:19:35;18.90;99.90
39277;DHT22;24981;48.086;-1.686;2022-07-26T02:22:03;18.90;99.90
39277;DHT22;24981;48.086;-1.686;2022-07-26T02:24:30;18.80;99.90
39277;DHT22;24981;48.086;-1.686;2022-07-26T02:26:59;18.80;99.90
39277;DHT22;24981;48.086;-1.686;2022-07-26T02:29:27;18.80;99.90
39277;DHT22;24981;48.086;-1.686;2022-07-26T02:31:56;18.80;99.90
39277;DHT22;24981;48.086;-1.686;2022-07-26T02:34:23;18.70;99.90
39277;DHT22;24981;48.086;-1.686;2022-07-26T02:36:51;18.70;99.90
39277;DHT22;24981;48.086;-1.686;2022-07-26T02:39:18;18.70;99.90
39277;DHT22;24981;48.086;-1.686;2022-07-26T02:41:46;18.60;99.90
39277;DHT22;24981;48.086;-1.686;2022-07-26T02:44:13;18.70;99.90
39277;DHT22;24981;48.086;-1.686;2022-07-26T02:46:41;18.70;99.90
39277;DHT22;24981;48.086;-1.686;2022-07-26T02:49:09;18.60;99.90
39277;DHT22;24981;48.086;-1.686;2022-07-26T02:51:37;18.60;99.90
39277;DHT22;24981;48.086;-1.686;2022-07-26T02:54:04;18.60;99.90
39277;DHT22;24981;48.086;-1.686;2022-07-26T02:56:31;18.60;99.90
39277;DHT22;24981;48.086;-1.686;2022-07-26T02:58:59;18.60;99.90
39277;DHT22;24981;48.086;-1.686;2022-07-26T03:01:26;18.50;99.90
39277;DHT22;24981;48.086;-1.686;2022-07-26T03:03:54;18.50;99.90
39277;DHT22;24981;48.086;-1.686;2022-07-26T03:06:23;18.50;99.90
39277;DHT22;24981;48.086;-1.686;2022-07-26T03:08:50;18.50;99.90
39277;DHT22;24981;48.086;-1.686;2022-07-26T03:11:18;18.60;99.90
39277;DHT22;24981;48.086;-1.686;2022-07-26T03:13:45;18.60;99.90
39277;DHT22;24981;48.086;-1.686;2022-07-26T03:16:12;18.60;99.90
39277;DHT22;24981;48.086;-1.686;2022-07-26T03:18:39;18.60;99.90
39277;DHT22;24981;48.086;-1.686;2022-07-26T03:21:07;18.70;99.90
39277;DHT22;24981;48.086;-1.686;2022-07-26T03:23:36;18.60;99.90
39277;DHT22;24981;48.086;-1.686;2022-07-26T03:26:03;18.50;99.90
39277;DHT22;24981;48.086;-1.686;2022-07-26T03:28:31;18.60;99.90
39277;DHT22;24981;48.086;-1.686;2022-07-26T03:30:58;18.60;99.90
39277;DHT22;24981;48.086;-1.686;2022-07-26T03:33:26;18.60;99.90
39277;DHT22;24981;48.086;-1.686;2022-07-26T03:35:53;18.50;99.90
39277;DHT22;24981;48.086;-1.686;2022-07-26T03:38:21;18.50;99.90
39277;DHT22;24981;48.086;-1.686;2022-07-26T03:40:49;18.50;99.90
39277;DHT22;24981;48.086;-1.686;2022-07-26T03:43:17;18.40;99.90
39277;DHT22;24981;48.086;-1.686;2022-07-26T03:45:44;18.40;99.90
39277;DHT22;24981;48.086;-1.686;2022-07-26T03:48:12;18.40;99.90
39277;DHT22;24981;48.086;-1.686;2022-07-26T03:50:39;18.40;99.90
39277;DHT22;24981;48.086;-1.686;2022-07-26T03:53:07;18.40;99.90
39277;DHT22;24981;48.086;-1.686;2022-07-26T03:55:35;18.20;99.90
39277;DHT22;24981;48.086;-1.686;2022-07-26T03:58:17;18.20;99.90
39277;DHT22;24981;48.086;-1.686;2022-07-26T04:00:45;18.10;99.90
39277;DHT22;24981;48.086;-1.686;2022-07-26T04:03:12;18.10;99.90
39277;DHT22;24981;48.086;-1.686;2022-07-26T04:05:39;18.10;99.90
39277;DHT22;24981;48.086;-1.686;2022-07-26T04:08:07;18.10;99.90
39277;DHT22;24981;48.086;-1.686;2022-07-26T04:10:34;18.10;99.90
39277;DHT22;24981;48.086;-1.686;2022-07-26T04:13:01;18.20;99.90
39277;DHT22;24981;48.086;-1.686;2022-07-26T04:15:30;18.10;99.90
39277;DHT22;24981;48.086;-1.686;2022-07-26T04:17:57;18.20;99.90
39277;DHT22;24981;48.086;-1.686;2022-07-26T04:20:25;18.10;99.90
39277;DHT22;24981;48.086;-1.686;2022-07-26T04:22:52;18.10;99.90
39277;DHT22;24981;48.086;-1.686;2022-07-26T04:25:19;18.10;99.90
39277;DHT22;24981;48.086;-1.686;2022-07-26T04:27:47;18.10;99.90
39277;DHT22;24981;48.086;-1.686;2022-07-26T04:30:14;18.20;99.90
39277;DHT22;24981;48.086;-1.686;2022-07-26T04:32:44;18.10;99.90
39277;DHT22;24981;48.086;-1.686;2022-07-26T04:35:11;18.10;99.90
39277;DHT22;24981;48.086;-1.686;2022-07-26T04:37:39;18.00;99.90
39277;DHT22;24981;48.086;-1.686;2022-07-26T04:40:09;18.00;99.90
39277;DHT22;24981;48.086;-1.686;2022-07-26T04:42:36;18.10;99.90
39277;DHT22;24981;48.086;-1.686;2022-07-26T04:45:04;18.10;99.90
39277;DHT22;24981;48.086;-1.686;2022-07-26T04:47:32;18.00;99.90
39277;DHT22;24981;48.086;-1.686;2022-07-26T04:50:00;18.10;99.90
39277;DHT22;24981;48.086;-1.686;2022-07-26T04:52:28;18.10;99.90
39277;DHT22;24981;48.086;-1.686;2022-07-26T04:54:55;18.00;99.90
39277;DHT22;24981;48.086;-1.686;2022-07-26T04:57:23;18.00;99.90
39277;DHT22;24981;48.086;-1.686;2022-07-26T04:59:50;18.10;99.90
39277;DHT22;24981;48.086;-1.686;2022-07-26T05:02:17;18.00;99.90
39277;DHT22;24981;48.086;-1.686;2022-07-26T05:04:45;18.00;99.90
39277;DHT22;24981;48.086;-1.686;2022-07-26T05:07:13;18.00;99.90
39277;DHT22;24981;48.086;-1.686;2022-07-26T05:09:41;18.10;99.90
39277;DHT22;24981;48.086;-1.686;2022-07-26T05:12:09;18.10;99.90
39277;DHT22;24981;48.086;-1.686;2022-07-26T05:14:36;18.10;99.90
39277;DHT22;24981;48.086;-1.686;2022-07-26T05:17:04;18.10;99.90
39277;DHT22;24981;48.086;-1.686;2022-07-26T05:19:31;18.10;99.90
39277;DHT22;24981;48.086;-1.686;2022-07-26T05:21:59;18.20;99.90
39277;DHT22;24981;48.086;-1.686;2022-07-26T05:24:28;18.20;99.90
39277;DHT22;24981;48.086;-1.686;2022-07-26T05:26:55;18.30;99.90
39277;DHT22;24981;48.086;-1.686;2022-07-26T05:29:22;18.30;99.90
39277;DHT22;24981;48.086;-1.686;2022-07-26T05:31:49;18.30;99.90
39277;DHT22;24981;48.086;-1.686;2022-07-26T05:34:17;18.30;99.90
39277;DHT22;24981;48.086;-1.686;2022-07-26T05:36:44;18.30;99.90
39277;DHT22;24981;48.086;-1.686;2022-07-26T05:39:11;18.30;99.90
39277;DHT22;24981;48.086;-1.686;2022-07-26T05:41:40;18.40;99.90
39277;DHT22;24981;48.086;-1.686;2022-07-26T05:44:07;18.30;99.90
39277;DHT22;24981;48.086;-1.686;2022-07-26T05:46:35;18.40;99.90
39277;DHT22;24981;48.086;-1.686;2022-07-26T05:49:03;18.40;99.90
39277;DHT22;24981;48.086;-1.686;2022-07-26T05:51:31;18.40;99.90
39277;DHT22;24981;48.086;-1.686;2022-07-26T05:53:58;18.40;99.90
39277;DHT22;24981;48.086;-1.686;2022-07-26T05:56:26;18.40;99.90
39277;DHT22;24981;48.086;-1.686;2022-07-26T05:58:55;18.40;99.90
39277;DHT22;24981;48.086;-1.686;2022-07-26T06:01:22;18.40;99.90
39277;DHT22;24981;48.086;-1.686;2022-07-26T06:03:49;18.50;99.90
39277;DHT22;24981;48.086;-1.686;2022-07-26T06:06:16;18.50;99.90
39277;DHT22;24981;48.086;-1.686;2022-07-26T06:08:44;18.70;99.90
39277;DHT22;24981;48.086;-1.686;2022-07-26T06:11:11;18.70;99.90
39277;DHT22;24981;48.086;-1.686;2022-07-26T06:13:39;18.80;99.90
39277;DHT22;24981;48.086;-1.686;2022-07-26T06:16:08;18.90;99.90
39277;DHT22;24981;48.086;-1.686;2022-07-26T06:18:35;18.90;99.90
39277;DHT22;24981;48.086;-1.686;2022-07-26T06:21:02;19.00;99.90
39277;DHT22;24981;48.086;-1.686;2022-07-26T06:23:30;18.90;99.90
39277;DHT22;24981;48.086;-1.686;2022-07-26T06:25:57;19.00;99.90
39277;DHT22;24981;48.086;-1.686;2022-07-26T06:28:24;19.00;99.90
39277;DHT22;24981;48.086;-1.686;2022-07-26T06:30:52;19.00;99.90
39277;DHT22;24981;48.086;-1.686;2022-07-26T06:33:20;19.00;99.90
39277;DHT22;24981;48.086;-1.686;2022-07-26T06:35:48;19.10;99.90
39277;DHT22;24981;48.086;-1.686;2022-07-26T06:38:15;19.20;99.90
39277;DHT22;24981;48.086;-1.686;2022-07-26T06:40:42;19.30;99.90
39277;DHT22;24981;48.086;-1.686;2022-07-26T06:43:10;19.30;99.90
39277;DHT22;24981;48.086;-1.686;2022-07-26T06:45:37;19.40;99.90
39277;DHT22;24981;48.086;-1.686;2022-07-26T06:48:04;19.30;99.90
39277;DHT22;24981;48.086;-1.686;2022-07-26T06:50:33;19.20;99.90
39277;DHT22;24981;48.086;-1.686;2022-07-26T06:53:00;19.30;99.90
39277;DHT22;24981;48.086;-1.686;2022-07-26T06:55:28;19.20;99.90
39277;DHT22;24981;48.086;-1.686;2022-07-26T06:57:55;19.30;99.90
39277;DHT22;24981;48.086;-1.686;2022-07-26T07:00:22;19.30;99.90
39277;DHT22;24981;48.086;-1.686;2022-07-26T07:02:50;19.40;99.90
39277;DHT22;24981;48.086;-1.686;2022-07-26T07:05:17;19.50;99.90
39277;DHT22;24981;48.086;-1.686;2022-07-26T07:07:46;19.60;99.90
39277;DHT22;24981;48.086;-1.686;2022-07-26T07:10:13;19.60;99.90
39277;DHT22;24981;48.086;-1.686;2022-07-26T07:12:40;19.50;99.90
39277;DHT22;24981;48.086;-1.686;2022-07-26T07:15:10;19.50;99.90
39277;DHT22;24981;48.086;-1.686;2022-07-26T07:17:37;19.60;99.90
39277;DHT22;24981;48.086;-1.686;2022-07-26T07:20:05;19.60;99.90
39277;DHT22;24981;48.086;-1.686;2022-07-26T07:22:33;19.80;99.90
39277;DHT22;24981;48.086;-1.686;2022-07-26T07:25:08;20.00;99.90
39277;DHT22;24981;48.086;-1.686;2022-07-26T07:27:36;20.00;99.90
39277;DHT22;24981;48.086;-1.686;2022-07-26T07:30:04;20.10;99.90
39277;DHT22;24981;48.086;-1.686;2022-07-26T07:32:31;20.10;99.90
39277;DHT22;24981;48.086;-1.686;2022-07-26T07:34:59;20.20;99.90
39277;DHT22;24981;48.086;-1.686;2022-07-26T07:37:26;20.20;99.90
39277;DHT22;24981;48.086;-1.686;2022-07-26T07:39:53;20.50;99.90
39277;DHT22;24981;48.086;-1.686;2022-07-26T07:42:22;20.60;99.90
39277;DHT22;24981;48.086;-1.686;2022-07-26T07:44:49;20.70;99.90
39277;DHT22;24981;48.086;-1.686;2022-07-26T07:47:17;20.70;99.90
39277;DHT22;24981;48.086;-1.686;2022-07-26T07:49:44;20.60;99.90
39277;DHT22;24981;48.086;-1.686;2022-07-26T07:52:11;20.70;99.90
39277;DHT22;24981;48.086;-1.686;2022-07-26T07:54:38;20.70;99.90
39277;DHT22;24981;48.086;-1.686;2022-07-26T07:57:06;20.80;99.90
39277;DHT22;24981;48.086;-1.686;2022-07-26T07:59:34;20.70;99.90
39277;DHT22;24981;48.086;-1.686;2022-07-26T08:02:02;20.80;99.90
39277;DHT22;24981;48.086;-1.686;2022-07-26T08:04:29;20.70;99.90
39277;DHT22;24981;48.086;-1.686;2022-07-26T08:06:56;20.60;99.90
39277;DHT22;24981;48.086;-1.686;2022-07-26T08:09:24;20.60;99.90
39277;DHT22;24981;48.086;-1.686;2022-07-26T08:11:51;20.60;99.90
39277;DHT22;24981;48.086;-1.686;2022-07-26T08:14:19;20.80;99.90
39277;DHT22;24981;48.086;-1.686;2022-07-26T08:16:47;21.00;99.90
39277;DHT22;24981;48.086;-1.686;2022-07-26T08:19:14;21.00;99.90
39277;DHT22;24981;48.086;-1.686;2022-07-26T08:21:42;20.90;99.90
39277;DHT22;24981;48.086;-1.686;2022-07-26T08:24:11;21.10;99.90
39277;DHT22;24981;48.086;-1.686;2022-07-26T08:26:38;21.30;99.90
39277;DHT22;24981;48.086;-1.686;2022-07-26T08:29:05;21.30;99.90
39277;DHT22;24981;48.086;-1.686;2022-07-26T08:31:33;21.30;99.90
39277;DHT22;24981;48.086;-1.686;2022-07-26T08:34:01;21.40;99.90
39277;DHT22;24981;48.086;-1.686;2022-07-26T08:36:29;21.50;99.90
39277;DHT22;24981;48.086;-1.686;2022-07-26T08:38:56;21.50;99.90
39277;DHT22;24981;48.086;-1.686;2022-07-26T08:41:24;21.70;99.90
39277;DHT22;24981;48.086;-1.686;2022-07-26T08:43:51;21.80;99.90
39277;DHT22;24981;48.086;-1.686;2022-07-26T08:46:19;22.00;99.90
39277;DHT22;24981;48.086;-1.686;2022-07-26T08:48:46;21.90;99.90
39277;DHT22;24981;48.086;-1.686;2022-07-26T08:51:16;21.80;99.90
39277;DHT22;24981;48.086;-1.686;2022-07-26T08:53:46;22.00;99.90
39277;DHT22;24981;48.086;-1.686;2022-07-26T08:56:14;22.10;99.90
39277;DHT22;24981;48.086;-1.686;2022-07-26T08:58:41;22.20;99.90
39277;DHT22;24981;48.086;-1.686;2022-07-26T09:01:11;22.50;99.90
39277;DHT22;24981;48.086;-1.686;2022-07-26T09:03:39;22.50;99.90
39277;DHT22;24981;48.086;-1.686;2022-07-26T09:06:22;22.80;99.90
39277;DHT22;24981;48.086;-1.686;2022-07-26T09:08:51;22.90;99.90
39277;DHT22;24981;48.086;-1.686;2022-07-26T09:11:33;22.90;99.90
39277;DHT22;24981;48.086;-1.686;2022-07-26T09:14:03;22.80;99.90
39277;DHT22;24981;48.086;-1.686;2022-07-26T09:16:31;22.50;99.90
39277;DHT22;24981;48.086;-1.686;2022-07-26T09:19:15;22.30;99.90
39277;DHT22;24981;48.086;-1.686;2022-07-26T09:21:45;22.20;99.90
39277;DHT22;24981;48.086;-1.686;2022-07-26T09:24:12;22.30;99.90
39277;DHT22;24981;48.086;-1.686;2022-07-26T09:26:40;22.30;99.90
39277;DHT22;24981;48.086;-1.686;2022-07-26T09:29:10;22.20;99.90
39277;DHT22;24981;48.086;-1.686;2022-07-26T09:31:38;22.40;99.90
39277;DHT22;24981;48.086;-1.686;2022-07-26T09:34:06;22.50;99.90
39277;DHT22;24981;48.086;-1.686;2022-07-26T09:36:51;22.70;99.90
39277;DHT22;24981;48.086;-1.686;2022-07-26T09:39:19;22.90;99.90
39277;DHT22;24981;48.086;-1.686;2022-07-26T09:41:47;23.10;99.90
39277;DHT22;24981;48.086;-1.686;2022-07-26T09:44:29;23.30;99.90
39277;DHT22;24981;48.086;-1.686;2022-07-26T09:46:57;23.10;99.90
39277;DHT22;24981;48.086;-1.686;2022-07-26T09:49:25;22.70;99.90
39277;DHT22;24981;48.086;-1.686;2022-07-26T09:51:54;22.60;99.90
39277;DHT22;24981;48.086;-1.686;2022-07-26T09:54:31;22.60;99.90
39277;DHT22;24981;48.086;-1.686;2022-07-26T09:57:00;22.60;99.90
39277;DHT22;24981;48.086;-1.686;2022-07-26T09:59:29;22.40;99.90
39277;DHT22;24981;48.086;-1.686;2022-07-26T10:01:58;22.60;99.90
39277;DHT22;24981;48.086;-1.686;2022-07-26T10:04:26;22.90;99.90
39277;DHT22;24981;48.086;-1.686;2022-07-26T10:06:55;23.30;99.90
39277;DHT22;24981;48.086;-1.686;2022-07-26T10:09:24;23.80;99.90
39277;DHT22;24981;48.086;-1.686;2022-07-26T10:11:55;24.30;99.90
39277;DHT22;24981;48.086;-1.686;2022-07-26T10:14:39;24.60;99.90
39277;DHT22;24981;48.086;-1.686;2022-07-26T10:20:05;24.60;99.90
39277;DHT22;24981;48.086;-1.686;2022-07-26T10:22:42;24.70;99.90
39277;DHT22;24981;48.086;-1.686;2022-07-26T10:28:23;24.60;99.90
39277;DHT22;24981;48.086;-1.686;2022-07-26T10:30:53;24.20;99.90
39277;DHT22;24981;48.086;-1.686;2022-07-26T10:33:42;24.20;99.90
39277;DHT22;24981;48.086;-1.686;2022-07-26T10:36:21;24.20;99.90
39277;DHT22;24981;48.086;-1.686;2022-07-26T10:39:00;23.80;99.90
39277;DHT22;24981;48.086;-1.686;2022-07-26T10:41:31;23.90;99.90
39277;DHT22;24981;48.086;-1.686;2022-07-26T10:44:15;24.10;99.90
39277;DHT22;24981;48.086;-1.686;2022-07-26T10:46:59;24.20;99.90
39277;DHT22;24981;48.086;-1.686;2022-07-26T10:49:29;23.80;99.90
39277;DHT22;24981;48.086;-1.686;2022-07-26T10:52:13;23.60;99.90
39277;DHT22;24981;48.086;-1.686;2022-07-26T10:55:07;23.80;99.90
39277;DHT22;24981;48.086;-1.686;2022-07-26T10:57:36;23.90;99.90
39277;DHT22;24981;48.086;-1.686;2022-07-26T11:00:11;23.90;99.90
39277;DHT22;24981;48.086;-1.686;2022-07-26T11:02:40;24.10;99.90
39277;DHT22;24981;48.086;-1.686;2022-07-26T11:05:10;24.50;99.90
39277;DHT22;24981;48.086;-1.686;2022-07-26T11:07:56;24.70;99.90
39277;DHT22;24981;48.086;-1.686;2022-07-26T11:10:27;25.00;99.90
39277;DHT22;24981;48.086;-1.686;2022-07-26T11:13:11;24.90;99.90
39277;DHT22;24981;48.086;-1.686;2022-07-26T11:15:41;25.00;99.90
39277;DHT22;24981;48.086;-1.686;2022-07-26T11:18:12;25.10;99.90
39277;DHT22;24981;48.086;-1.686;2022-07-26T11:20:42;24.90;99.90
39277;DHT22;24981;48.086;-1.686;2022-07-26T11:23:28;25.20;99.90
39277;DHT22;24981;48.086;-1.686;2022-07-26T11:26:04;25.30;99.90
39277;DHT22;24981;48.086;-1.686;2022-07-26T11:28:46;25.30;99.90
39277;DHT22;24981;48.086;-1.686;2022-07-26T11:31:14;25.10;99.80
39277;DHT22;24981;48.086;-1.686;2022-07-26T11:33:43;25.20;99.60
39277;DHT22;24981;48.086;-1.686;2022-07-26T11:36:13;25.20;99.10
39277;DHT22;24981;48.086;-1.686;2022-07-26T11:38:55;25.40;99.00
39277;DHT22;24981;48.086;-1.686;2022-07-26T11:41:26;25.40;97.70
39277;DHT22;24981;48.086;-1.686;2022-07-26T11:43:54;25.50;97.20
39277;DHT22;24981;48.086;-1.686;2022-07-26T11:46:24;25.60;96.90
39277;DHT22;24981;48.086;-1.686;2022-07-26T11:48:58;26.00;96.70
39277;DHT22;24981;48.086;-1.686;2022-07-26T11:51:25;25.90;96.50
39277;DHT22;24981;48.086;-1.686;2022-07-26T11:53:53;25.70;95.00
39277;DHT22;24981;48.086;-1.686;2022-07-26T11:56:27;26.20;94.90
39277;DHT22;24981;48.086;-1.686;2022-07-26T11:58:56;26.30;94.00
39277;DHT22;24981;48.086;-1.686;2022-07-26T12:01:25;26.10;93.20
39277;DHT22;24981;48.086;-1.686;2022-07-26T12:03:54;26.10;93.20
39277;DHT22;24981;48.086;-1.686;2022-07-26T12:06:25;26.10;92.90
39277;DHT22;24981;48.086;-1.686;2022-07-26T12:08:55;26.40;93.30
39277;DHT22;24981;48.086;-1.686;2022-07-26T12:11:36;26.50;92.10
39277;DHT22;24981;48.086;-1.686;2022-07-26T12:14:04;26.30;91.40
39277;DHT22;24981;48.086;-1.686;2022-07-26T12:16:38;26.00;91.40
39277;DHT22;24981;48.086;-1.686;2022-07-26T12:19:08;26.00;91.20
39277;DHT22;24981;48.086;-1.686;2022-07-26T12:21:39;26.30;90.70
39277;DHT22;24981;48.086;-1.686;2022-07-26T12:24:07;26.10;90.30
39277;DHT22;24981;48.086;-1.686;2022-07-26T12:26:36;26.20;90.20
39277;DHT22;24981;48.086;-1.686;2022-07-26T12:29:05;25.80;89.40
39277;DHT22;24981;48.086;-1.686;2022-07-26T12:31:48;26.10;90.10
39277;DHT22;24981;48.086;-1.686;2022-07-26T12:34:26;26.10;90.10
39277;DHT22;24981;48.086;-1.686;2022-07-26T12:36:53;25.60;88.20
39277;DHT22;24981;48.086;-1.686;2022-07-26T12:39:21;25.50;90.50
39277;DHT22;24981;48.086;-1.686;2022-07-26T12:41:50;25.50;90.70
39277;DHT22;24981;48.086;-1.686;2022-07-26T12:44:18;25.60;90.40
39277;DHT22;24981;48.086;-1.686;2022-07-26T12:46:47;25.50;90.00
39277;DHT22;24981;48.086;-1.686;2022-07-26T12:49:15;26.00;90.20
39277;DHT22;24981;48.086;-1.686;2022-07-26T12:51:42;26.00;88.20
39277;DHT22;24981;48.086;-1.686;2022-07-26T12:54:09;26.40;88.50
39277;DHT22;24981;48.086;-1.686;2022-07-26T12:56:37;26.70;89.60
39277;DHT22;24981;48.086;-1.686;2022-07-26T12:59:05;27.00;87.00
39277;DHT22;24981;48.086;-1.686;2022-07-26T13:01:33;27.00;86.40
39277;DHT22;24981;48.086;-1.686;2022-07-26T13:04:00;26.60;83.90
39277;DHT22;24981;48.086;-1.686;2022-07-26T13:06:27;26.80;84.80
39277;DHT22;24981;48.086;-1.686;2022-07-26T13:08:55;27.20;83.10
39277;DHT22;24981;48.086;-1.686;2022-07-26T13:11:22;27.00;81.70
39277;DHT22;24981;48.086;-1.686;2022-07-26T13:13:50;27.00;82.10
39277;DHT22;24981;48.086;-1.686;2022-07-26T13:16:18;27.30;80.90
39277;DHT22;24981;48.086;-1.686;2022-07-26T13:18:46;27.70;79.30
39277;DHT22;24981;48.086;-1.686;2022-07-26T13:21:13;28.00;78.40
39277;DHT22;24981;48.086;-1.686;2022-07-26T13:23:40;28.60;77.60
39277;DHT22;24981;48.086;-1.686;2022-07-26T13:26:07;28.80;76.80
39277;DHT22;24981;48.086;-1.686;2022-07-26T13:28:35;29.20;75.60
39277;DHT22;24981;48.086;-1.686;2022-07-26T13:31:02;29.20;74.50
39277;DHT22;24981;48.086;-1.686;2022-07-26T13:33:31;28.70;72.30
39277;DHT22;24981;48.086;-1.686;2022-07-26T13:35:58;29.20;72.10
39277;DHT22;24981;48.086;-1.686;2022-07-26T13:38:25;29.20;70.50
39277;DHT22;24981;48.086;-1.686;2022-07-26T13:40:53;28.70;71.30
39277;DHT22;24981;48.086;-1.686;2022-07-26T13:43:21;28.20;71.70
39277;DHT22;24981;48.086;-1.686;2022-07-26T13:45:48;27.90;72.60
39277;DHT22;24981;48.086;-1.686;2022-07-26T13:48:15;28.20;73.80
39277;DHT22;24981;48.086;-1.686;2022-07-26T13:50:44;28.30;72.50
39277;DHT22;24981;48.086;-1.686;2022-07-26T13:53:11;28.00;71.30
39277;DHT22;24981;48.086;-1.686;2022-07-26T13:55:39;28.20;72.00
39277;DHT22;24981;48.086;-1.686;2022-07-26T13:58:06;28.20;71.90
39277;DHT22;24981;48.086;-1.686;2022-07-26T14:00:34;28.00;71.30
39277;DHT22;24981;48.086;-1.686;2022-07-26T14:03:01;28.10;70.40
39277;DHT22;24981;48.086;-1.686;2022-07-26T14:05:28;28.30;70.20
39277;DHT22;24981;48.086;-1.686;2022-07-26T14:07:57;28.40;69.30
39277;DHT22;24981;48.086;-1.686;2022-07-26T14:10:24;28.50;68.10
39277;DHT22;24981;48.086;-1.686;2022-07-26T14:12:52;28.80;67.90
39277;DHT22;24981;48.086;-1.686;2022-07-26T14:15:19;28.80;69.10
39277;DHT22;24981;48.086;-1.686;2022-07-26T14:17:47;28.80;68.90
39277;DHT22;24981;48.086;-1.686;2022-07-26T14:20:14;29.40;67.90
39277;DHT22;24981;48.086;-1.686;2022-07-26T14:22:42;31.30;64.00
39277;DHT22;24981;48.086;-1.686;2022-07-26T14:25:11;30.30;64.10
39277;DHT22;24981;48.086;-1.686;2022-07-26T14:27:38;29.90;64.70
39277;DHT22;24981;48.086;-1.686;2022-07-26T14:30:06;29.30;65.60
39277;DHT22;24981;48.086;-1.686;2022-07-26T14:32:33;28.60;66.40
39277;DHT22;24981;48.086;-1.686;2022-07-26T14:35:01;27.80;67.50
39277;DHT22;24981;48.086;-1.686;2022-07-26T14:37:28;28.10;68.60
39277;DHT22;24981;48.086;-1.686;2022-07-26T14:39:56;28.30;68.40
39277;DHT22;24981;48.086;-1.686;2022-07-26T14:42:24;30.90;65.60
39277;DHT22;24981;48.086;-1.686;2022-07-26T14:44:52;32.10;60.80
39277;DHT22;24981;48.086;-1.686;2022-07-26T14:47:19;31.20;59.50
39277;DHT22;24981;48.086;-1.686;2022-07-26T14:49:47;30.50;61.60
39277;DHT22;24981;48.086;-1.686;2022-07-26T14:52:14;30.40;62.00
39277;DHT22;24981;48.086;-1.686;2022-07-26T14:54:41;30.00;62.80
39277;DHT22;24981;48.086;-1.686;2022-07-26T14:57:09;29.80;62.80
39277;DHT22;24981;48.086;-1.686;2022-07-26T14:59:37;29.30;62.80
39277;DHT22;24981;48.086;-1.686;2022-07-26T15:02:05;29.20;63.70
39277;DHT22;24981;48.086;-1.686;2022-07-26T15:04:32;28.70;64.50
39277;DHT22;24981;48.086;-1.686;2022-07-26T15:06:59;28.10;64.90
39277;DHT22;24981;48.086;-1.686;2022-07-26T15:09:27;27.80;66.00
39277;DHT22;24981;48.086;-1.686;2022-07-26T15:11:54;28.10;64.90
39277;DHT22;24981;48.086;-1.686;2022-07-26T15:14:21;28.10;65.00
39277;DHT22;24981;48.086;-1.686;2022-07-26T15:16:50;27.90;66.20
39277;DHT22;24981;48.086;-1.686;2022-07-26T15:19:17;27.40;66.80
39277;DHT22;24981;48.086;-1.686;2022-07-26T15:21:45;27.40;67.30
39277;DHT22;24981;48.086;-1.686;2022-07-26T15:24:12;27.30;67.50
39277;DHT22;24981;48.086;-1.686;2022-07-26T15:26:39;27.70;66.80
39277;DHT22;24981;48.086;-1.686;2022-07-26T15:29:07;28.30;66.00
39277;DHT22;24981;48.086;-1.686;2022-07-26T15:31:34;29.10;64.10